Archival Weather

NSFA McMurdo Sound

NSFA McMurdo Sound, Antarctica (NZCM)

Report from: Tuesday, June 6, 2023 9:55 PM UTC
Current time: Tuesday, July 16, 2024 9:00 AM UTC

Current weather – Weather history – Daily summaries
Weather forecast

Temperature-19.6°C (-3.3°F)
Wind chill-24.2°C (-11.6°F)
Dew point-33.1°C (-27.6°F)
Winds 3 kts (1.5 m/s, 3.5 mph) Northeast (50°)
Visibility6.2 mi. (10 km)
Clouds Ceiling: Overcast 5,000 ft. (1,524 m)
Altimeter28.80 in.Hg (975 mB)
Relative humidity29 %
Density altitude-6,544 ft. (-1,995 m)
Sea-level pressure107.6 kPa (1076 mB, 31.77 in.Hg)
Remarks Fully automated report
Automated weather observing station with precipitation discriminator
Flight conditions Visual Meteorological Conditions
Raw dataNZCM 062155Z AUTO 05003KT 9999 OVC050 M20/M33 A2880 RMK AO2 SLP760 T11961331
An error has occurred. This application may no longer respond until reloaded. Reload 🗙